Orbital elements of COSMOS 1275 DEB
| Launched | 3 June 1981 |
| Flight ended | – |
| Launch site | Plesetsk Missile and Space Complex, Russia |
| Owner | Commonwealth of Independent States (former USSR) |
| NORAD ID | 13802 |
| Date fetched |
Epoch osculation |
Inc. [°] |
Ecc. | RA asc node [hr] |
Arg Peri. [°] |
Mean anom [°] |
Mean motion [rev/day] |
Abs. mag |
| Date fetched |
Epoch osculation |
Inc. [°] |
Ecc. | RA asc node [hr] |
Arg Peri. [°] |
Mean anom [°] |
Mean motion [rev/day] |
Abs. mag |
| 2026 May 05 17:57 | 2026 May 05 10:56:01 | 82.7981 | 0.00609 | 7.5952 | 344.3003 | 173.1721 | 13.79780 | – |
| 2026 May 04 17:57 | 2026 Apr 30 10:49:13 | 82.7977 | 0.00613 | 7.8494 | 358.3160 | 173.1721 | 13.79780 | – |
| 2026 May 03 17:57 | 2026 Apr 30 10:49:13 | 82.7977 | 0.00613 | 7.8494 | 358.3160 | 173.1721 | 13.79780 | – |
| 2026 May 02 17:57 | 2026 Apr 30 10:49:13 | 82.7977 | 0.00613 | 7.8494 | 358.3160 | 173.1721 | 13.79780 | – |
| 2026 May 01 17:56 | 2026 Apr 30 10:49:13 | 82.7977 | 0.00613 | 7.8494 | 358.3160 | 173.1721 | 13.79780 | – |
| 2026 Apr 30 17:56 | 2026 Apr 30 10:49:13 | 82.7977 | 0.00613 | 7.8494 | 358.3160 | 173.1721 | 13.79780 | – |
| 2026 Apr 29 17:57 | 2026 Apr 24 11:56:56 | 82.7978 | 0.00618 | 8.1518 | 14.9107 | 173.1721 | 13.79780 | – |
| 2026 Apr 28 17:56 | 2026 Apr 24 11:56:56 | 82.7978 | 0.00618 | 8.1518 | 14.9107 | 173.1721 | 13.79780 | – |
| 2026 Apr 27 17:58 | 2026 Apr 24 11:56:56 | 82.7978 | 0.00618 | 8.1518 | 14.9107 | 173.1721 | 13.79780 | – |
| 2026 Apr 26 17:58 | 2026 Apr 24 11:56:56 | 82.7978 | 0.00618 | 8.1518 | 14.9107 | 173.1721 | 13.79780 | – |
| 2026 Apr 25 17:58 | 2026 Apr 24 11:56:56 | 82.7978 | 0.00618 | 8.1518 | 14.9107 | 173.1721 | 13.79780 | – |
| 2026 Apr 24 17:59 | 2026 Apr 24 11:56:56 | 82.7978 | 0.00618 | 8.1518 | 14.9107 | 173.1721 | 13.79780 | – |
| 2026 Apr 23 17:57 | 2026 Apr 19 11:52:23 | 82.7984 | 0.00621 | 8.4060 | 28.8204 | 173.1721 | 13.79780 | – |
| 2026 Apr 22 17:57 | 2026 Apr 19 11:52:23 | 82.7984 | 0.00621 | 8.4060 | 28.8204 | 173.1721 | 13.79780 | – |
| 2026 Apr 21 17:57 | 2026 Apr 19 11:52:23 | 82.7984 | 0.00621 | 8.4060 | 28.8204 | 173.1721 | 13.79780 | – |
| 2026 Apr 20 17:57 | 2026 Apr 19 11:52:23 | 82.7984 | 0.00621 | 8.4060 | 28.8204 | 173.1721 | 13.79780 | – |
| 2026 Apr 19 17:58 | 2026 Apr 19 11:52:23 | 82.7984 | 0.00621 | 8.4060 | 28.8204 | 173.1721 | 13.79780 | – |
| 2026 Apr 18 17:56 | 2026 Apr 12 12:56:07 | 82.7989 | 0.00626 | 8.7592 | 48.1285 | 173.1721 | 13.79780 | – |
| 2026 Apr 16 17:57 | 2026 Apr 12 12:56:07 | 82.7989 | 0.00626 | 8.7592 | 48.1285 | 173.1721 | 13.79780 | – |
| 2026 Apr 14 17:57 | 2026 Apr 12 12:56:07 | 82.7989 | 0.00626 | 8.7592 | 48.1285 | 173.1721 | 13.79780 | – |
| 2026 Apr 13 17:57 | 2026 Apr 12 12:56:07 | 82.7989 | 0.00626 | 8.7592 | 48.1285 | 173.1721 | 13.79780 | – |
| 2026 Apr 12 17:57 | 2026 Apr 08 13:12:39 | 82.7995 | 0.00629 | 8.9618 | 59.1700 | 173.1721 | 13.79780 | – |
| 2026 Apr 11 17:57 | 2026 Apr 08 13:12:39 | 82.7995 | 0.00629 | 8.9618 | 59.1700 | 173.1721 | 13.79780 | – |
| 2026 Apr 10 17:58 | 2026 Apr 08 13:12:39 | 82.7995 | 0.00629 | 8.9618 | 59.1700 | 173.1721 | 13.79780 | – |
| 2026 Apr 09 18:01 | 2026 Apr 08 13:12:39 | 82.7995 | 0.00629 | 8.9618 | 59.1700 | 173.1721 | 13.79780 | – |
| 2026 Apr 08 17:57 | 2026 Apr 08 13:12:39 | 82.7995 | 0.00629 | 8.9618 | 59.1700 | 173.1721 | 13.79780 | – |